createdAt,value
2023-01-29T00:00:15.172Z,59.25
2023-01-29T00:03:04.099Z,59.68
2023-01-29T00:05:32.115Z,59.36
2023-01-29T00:08:00.511Z,59.24
2023-01-29T00:10:28.536Z,59.08
2023-01-29T00:12:56.870Z,59.21
2023-01-29T00:15:24.874Z,58.65
2023-01-29T00:17:53.179Z,59.31
2023-01-29T00:20:21.202Z,59.52
2023-01-29T00:22:50.912Z,59.27
2023-01-29T00:25:18.842Z,59.14
2023-01-29T00:27:47.130Z,58.60
2023-01-29T00:30:20.106Z,59.10
2023-01-29T00:32:48.660Z,58.48
2023-01-29T00:35:16.641Z,57.92
2023-01-29T00:37:44.989Z,57.89
2023-01-29T00:40:13.376Z,58.03
2023-01-29T00:43:00.491Z,58.80
2023-01-29T00:45:28.348Z,58.80
2023-01-29T00:47:56.604Z,59.29
2023-01-29T00:50:24.619Z,58.96
2023-01-29T00:52:54.924Z,57.99
2023-01-29T00:55:23.068Z,58.42
2023-01-29T00:58:14.415Z,59.15
2023-01-29T01:00:42.450Z,59.10
2023-01-29T01:03:10.937Z,59.49
2023-01-29T01:05:39.814Z,60.33
2023-01-29T01:08:28.023Z,59.39
2023-01-29T01:11:01.635Z,59.79
2023-01-29T01:13:31.577Z,59.42
2023-01-29T01:16:00.958Z,59.59
2023-01-29T01:18:32.409Z,59.52
2023-01-29T01:21:00.442Z,59.99
2023-01-29T01:23:28.828Z,60.02
2023-01-29T01:25:57.091Z,60.32
2023-01-29T01:28:25.765Z,59.97
2023-01-29T01:30:53.885Z,59.87
2023-01-29T01:33:22.327Z,59.38
2023-01-29T01:35:50.456Z,59.83
2023-01-29T01:38:18.647Z,60.37
2023-01-29T01:40:46.963Z,60.32
2023-01-29T01:43:16.418Z,60.12
2023-01-29T01:45:47.620Z,59.72
2023-01-29T01:48:18.846Z,59.53
2023-01-29T01:51:06.578Z,60.16
2023-01-29T01:53:43.688Z,60.12
2023-01-29T01:56:18.786Z,59.34
2023-01-29T01:58:59.314Z,59.66
2023-01-29T02:01:30.721Z,60.19
2023-01-29T02:04:26.157Z,60.60
2023-01-29T02:07:14.718Z,60.00
2023-01-29T02:10:08.859Z,59.86
2023-01-29T02:12:38.550Z,60.02
2023-01-29T02:15:08.485Z,60.06
2023-01-29T02:17:36.970Z,60.09
2023-01-29T02:20:21.188Z,60.21
2023-01-29T02:22:59.454Z,60.14
2023-01-29T02:25:58.278Z,60.54
2023-01-29T02:28:35.755Z,60.99
2023-01-29T02:31:29.006Z,60.57
2023-01-29T02:34:13.969Z,60.63
2023-01-29T02:36:51.004Z,60.36
2023-01-29T02:39:41.204Z,60.57
2023-01-29T02:42:27.562Z,60.95
2023-01-29T02:45:13.094Z,60.76
2023-01-29T02:47:49.379Z,60.43
2023-01-29T02:50:35.334Z,59.96
2023-01-29T02:53:14.935Z,60.77
2023-01-29T02:55:53.762Z,60.91
2023-01-29T02:58:31.544Z,61.02
2023-01-29T03:01:06.703Z,61.45
2023-01-29T03:03:42.198Z,61.57
2023-01-29T03:06:22.844Z,61.43
2023-01-29T03:09:15.035Z,61.51
2023-01-29T03:11:49.083Z,61.44
2023-01-29T03:15:01.048Z,62.17
2023-01-29T03:17:37.664Z,61.07
2023-01-29T03:20:14.165Z,61.60
2023-01-29T03:22:48.643Z,61.42
2023-01-29T03:25:39.695Z,61.45
2023-01-29T03:28:28.921Z,61.53
2023-01-29T03:31:21.527Z,60.84
2023-01-29T03:34:24.900Z,60.60
2023-01-29T03:37:01.575Z,60.96
2023-01-29T03:39:30.696Z,61.30
2023-01-29T03:42:22.695Z,61.21
2023-01-29T03:45:32.466Z,61.17
2023-01-29T03:48:16.964Z,60.89
2023-01-29T03:50:58.381Z,60.60
2023-01-29T03:54:04.456Z,61.05
2023-01-29T03:57:16.247Z,61.14
2023-01-29T04:00:18.957Z,61.17
2023-01-29T04:03:08.072Z,61.02
2023-01-29T04:05:45.313Z,61.60
2023-01-29T04:08:28.222Z,60.94
2023-01-29T04:11:02.121Z,61.37
2023-01-29T04:13:34.076Z,61.28
2023-01-29T04:16:06.812Z,61.36
2023-01-29T04:18:57.844Z,61.18
2023-01-29T04:21:32.212Z,61.72
2023-01-29T04:24:00.689Z,61.52
2023-01-29T04:26:42.943Z,61.24
2023-01-29T04:29:30.264Z,60.99
2023-01-29T04:32:04.953Z,61.53
2023-01-29T04:34:47.801Z,61.69
2023-01-29T04:37:37.253Z,61.92
2023-01-29T04:40:27.425Z,61.84
2023-01-29T04:43:03.004Z,61.66
2023-01-29T04:45:49.523Z,61.96
2023-01-29T04:48:30.578Z,62.21
2023-01-29T04:51:06.411Z,61.87
2023-01-29T04:53:39.673Z,62.12
2023-01-29T04:56:19.762Z,61.09
2023-01-29T04:58:58.175Z,61.73
2023-01-29T05:01:31.264Z,61.32
2023-01-29T05:04:04.223Z,61.34
2023-01-29T05:06:33.374Z,61.67
2023-01-29T05:09:02.911Z,61.95
2023-01-29T05:11:33.660Z,61.76
2023-01-29T05:14:06.992Z,61.77
2023-01-29T05:16:42.230Z,62.34
2023-01-29T05:19:13.633Z,62.66
2023-01-29T05:21:45.790Z,62.25
2023-01-29T05:24:27.192Z,62.14
2023-01-29T05:27:14.212Z,62.38
2023-01-29T05:29:47.227Z,62.61
2023-01-29T05:32:16.442Z,62.97
2023-01-29T05:34:44.763Z,62.63
2023-01-29T05:37:12.832Z,62.90
2023-01-29T05:39:41.350Z,63.09
2023-01-29T05:42:09.336Z,62.48
2023-01-29T05:44:38.724Z,62.63
2023-01-29T05:47:06.859Z,62.21
2023-01-29T05:49:38.650Z,61.70
2023-01-29T05:52:07.055Z,62.24
2023-01-29T05:54:35.393Z,61.64
2023-01-29T05:57:03.443Z,61.71
2023-01-29T05:59:32.833Z,61.16
2023-01-29T06:02:01.094Z,61.35
2023-01-29T06:04:29.492Z,62.53
2023-01-29T06:06:57.527Z,62.01
2023-01-29T06:09:25.833Z,62.81
2023-01-29T06:11:53.831Z,62.22
2023-01-29T06:14:22.210Z,62.22
2023-01-29T06:16:50.204Z,62.96
2023-01-29T06:19:18.493Z,63.00
2023-01-29T06:21:46.623Z,63.41
2023-01-29T06:24:15.362Z,63.32
2023-01-29T06:26:43.442Z,64.19
2023-01-29T06:29:11.732Z,63.76
2023-01-29T06:31:40.085Z,63.35
2023-01-29T06:34:09.113Z,63.79
2023-01-29T06:36:37.235Z,63.96
2023-01-29T06:39:05.586Z,64.51
2023-01-29T06:41:33.897Z,64.13
2023-01-29T06:44:02.375Z,63.96
2023-01-29T06:46:30.563Z,63.89
2023-01-29T06:49:01.166Z,63.45
2023-01-29T06:51:29.462Z,64.45
2023-01-29T06:53:58.091Z,63.64
2023-01-29T06:56:26.178Z,63.95
2023-01-29T06:58:54.723Z,63.36
2023-01-29T07:01:35.113Z,63.72
2023-01-29T07:04:04.721Z,63.54
2023-01-29T07:06:33.280Z,63.03
2023-01-29T07:09:02.003Z,63.29
2023-01-29T07:11:30.466Z,63.98
2023-01-29T07:13:58.816Z,64.14
2023-01-29T07:16:27.015Z,63.80
2023-01-29T07:18:55.378Z,63.52
2023-01-29T07:21:23.692Z,64.63
2023-01-29T07:23:52.042Z,64.83
2023-01-29T07:26:20.182Z,64.16
2023-01-29T07:28:48.559Z,63.77
2023-01-29T07:31:16.924Z,63.76
2023-01-29T07:33:45.536Z,64.06
2023-01-29T07:36:14.162Z,63.76
2023-01-29T07:38:42.686Z,64.10
2023-01-29T07:41:12.830Z,64.06
2023-01-29T07:43:43.522Z,64.03
2023-01-29T07:46:11.867Z,64.15
2023-01-29T07:48:40.403Z,64.41
2023-01-29T07:51:08.525Z,63.19
2023-01-29T07:53:37.905Z,62.29
2023-01-29T07:56:06.257Z,62.23
2023-01-29T07:58:36.657Z,62.05
2023-01-29T08:01:08.519Z,62.19
2023-01-29T08:03:37.136Z,61.57
2023-01-29T08:06:05.433Z,60.45
2023-01-29T08:08:33.947Z,60.13
2023-01-29T08:11:03.952Z,58.69
2023-01-29T08:13:33.981Z,58.24
2023-01-29T08:16:03.821Z,58.08
2023-01-29T08:18:33.264Z,56.99
2023-01-29T08:21:01.970Z,54.99
2023-01-29T08:23:30.805Z,54.99
2023-01-29T08:25:59.062Z,54.56
2023-01-29T08:28:27.580Z,54.56
2023-01-29T08:30:55.705Z,53.80
2023-01-29T08:33:38.007Z,53.53
2023-01-29T08:36:07.742Z,52.85
2023-01-29T08:38:36.972Z,52.89
2023-01-29T08:41:05.477Z,52.48
2023-01-29T08:43:37.358Z,52.97
2023-01-29T08:46:06.064Z,52.06
2023-01-29T08:48:35.155Z,51.43
2023-01-29T08:51:04.722Z,51.89
2023-01-29T08:53:33.431Z,51.33
2023-01-29T08:56:01.570Z,50.85
2023-01-29T08:58:30.947Z,50.61
2023-01-29T09:01:07.176Z,50.16
2023-01-29T09:03:35.912Z,49.08
2023-01-29T09:06:04.120Z,49.32
2023-01-29T09:08:32.441Z,48.79
2023-01-29T09:11:00.734Z,47.84
2023-01-29T09:13:30.164Z,47.79
2023-01-29T09:16:02.801Z,47.45
2023-01-29T09:18:31.911Z,46.85
2023-01-29T09:20:59.954Z,45.41
2023-01-29T09:23:30.427Z,45.83
2023-01-29T09:25:59.098Z,45.49
2023-01-29T09:28:27.963Z,44.56
2023-01-29T09:30:56.213Z,44.58
2023-01-29T09:33:25.103Z,44.45
2023-01-29T09:35:53.101Z,43.21
2023-01-29T09:38:21.414Z,42.35
2023-01-29T09:40:59.721Z,42.22
2023-01-29T09:43:37.593Z,41.84
2023-01-29T09:46:18.390Z,41.12
2023-01-29T09:49:29.791Z,41.70
2023-01-29T09:52:22.443Z,41.07
2023-01-29T09:55:02.406Z,41.50
2023-01-29T09:57:54.401Z,41.36
2023-01-29T10:01:04.251Z,41.51
2023-01-29T10:03:57.000Z,41.01
2023-01-29T10:06:28.243Z,42.13
2023-01-29T10:09:43.612Z,40.65
2023-01-29T10:12:11.393Z,41.09
2023-01-29T10:15:14.695Z,42.39
2023-01-29T10:18:04.015Z,41.57
2023-01-29T10:20:50.411Z,40.92
2023-01-29T10:23:39.989Z,40.43
2023-01-29T10:26:13.272Z,41.81
2023-01-29T10:28:46.769Z,41.11
2023-01-29T10:31:25.396Z,40.31
2023-01-29T10:34:12.140Z,41.11
2023-01-29T10:36:47.620Z,43.61
2023-01-29T10:39:20.854Z,43.80
2023-01-29T10:41:57.469Z,43.09
2023-01-29T10:44:53.333Z,42.07
2023-01-29T10:47:46.166Z,43.07
2023-01-29T10:50:14.060Z,43.10
2023-01-29T10:53:01.552Z,42.60
2023-01-29T10:55:40.995Z,41.59
2023-01-29T10:58:26.414Z,40.63
2023-01-29T11:00:54.350Z,40.39
2023-01-29T11:03:33.798Z,41.45
2023-01-29T11:06:12.171Z,43.45
2023-01-29T11:08:54.216Z,42.36
2023-01-29T11:11:25.293Z,41.62
2023-01-29T11:13:59.855Z,42.00
2023-01-29T11:16:30.510Z,42.49
2023-01-29T11:19:02.431Z,43.27
2023-01-29T11:21:30.381Z,41.52
2023-01-29T11:24:19.366Z,41.10
2023-01-29T11:26:50.664Z,41.95
2023-01-29T11:29:48.439Z,43.50
2023-01-29T11:32:28.963Z,42.44
2023-01-29T11:35:26.452Z,41.09
2023-01-29T11:38:09.292Z,41.01
2023-01-29T11:40:40.267Z,42.25
2023-01-29T11:43:33.351Z,42.15
2023-01-29T11:46:11.535Z,42.59
2023-01-29T11:48:59.119Z,41.81
2023-01-29T11:51:38.631Z,41.77
2023-01-29T11:54:06.781Z,43.13
2023-01-29T11:56:40.176Z,43.23
2023-01-29T11:59:29.607Z,42.48
2023-01-29T12:02:19.537Z,41.77
2023-01-29T12:04:48.556Z,43.83
2023-01-29T12:07:19.804Z,43.97
2023-01-29T12:09:57.682Z,43.33
2023-01-29T12:12:31.123Z,42.79
2023-01-29T12:15:17.245Z,41.96
2023-01-29T12:17:59.201Z,41.09
2023-01-29T12:21:01.968Z,41.20
2023-01-29T12:23:50.205Z,42.18
2023-01-29T12:26:55.596Z,42.04
2023-01-29T12:29:43.249Z,42.58
2023-01-29T12:32:38.332Z,40.70
2023-01-29T12:35:22.805Z,41.88
2023-01-29T12:38:09.203Z,41.12
2023-01-29T12:40:48.958Z,38.86
2023-01-29T12:43:19.486Z,39.85
2023-01-29T12:45:54.331Z,36.37
2023-01-29T12:48:28.341Z,35.44
2023-01-29T12:51:06.752Z,39.22
2023-01-29T12:53:44.962Z,41.05
2023-01-29T12:56:20.625Z,41.12
2023-01-29T12:58:53.381Z,37.13
2023-01-29T13:01:37.049Z,41.04
2023-01-29T13:04:29.752Z,38.09
2023-01-29T13:07:23.886Z,37.69
2023-01-29T13:09:58.627Z,35.04
2023-01-29T13:12:27.649Z,34.89
2023-01-29T13:14:59.552Z,36.95
2023-01-29T13:17:40.440Z,37.56
2023-01-29T13:20:29.958Z,38.45
2023-01-29T13:23:23.119Z,38.68
2023-01-29T13:25:54.844Z,39.33
2023-01-29T13:28:26.351Z,39.59
2023-01-29T13:31:20.473Z,41.04
2023-01-29T13:34:12.003Z,37.63
2023-01-29T13:36:52.322Z,39.14
2023-01-29T13:39:23.723Z,37.28
2023-01-29T13:41:53.518Z,37.96
2023-01-29T13:44:27.828Z,38.78
2023-01-29T13:47:05.596Z,38.11
2023-01-29T13:49:46.457Z,40.86
2023-01-29T13:52:27.723Z,41.54
2023-01-29T13:55:05.456Z,40.53
2023-01-29T13:57:46.300Z,37.19
2023-01-29T14:00:21.595Z,38.89
2023-01-29T14:02:55.426Z,37.27
2023-01-29T14:05:29.666Z,35.66
2023-01-29T14:08:09.772Z,38.22
2023-01-29T14:10:38.332Z,37.80
2023-01-29T14:13:18.490Z,38.23
2023-01-29T14:15:56.773Z,39.46
2023-01-29T14:18:28.009Z,37.81
2023-01-29T14:20:59.977Z,39.99
2023-01-29T14:23:30.482Z,39.98
2023-01-29T14:26:01.461Z,39.47
2023-01-29T14:28:32.485Z,36.53
2023-01-29T14:31:01.296Z,36.44
2023-01-29T14:33:39.795Z,36.49
2023-01-29T14:36:13.725Z,35.52
2023-01-29T14:38:48.472Z,32.69
2023-01-29T14:41:22.839Z,31.63
2023-01-29T14:43:50.756Z,31.23
2023-01-29T14:46:34.015Z,31.20
2023-01-29T14:49:02.783Z,33.61
2023-01-29T14:51:38.933Z,31.47
2023-01-29T14:54:25.082Z,29.52
2023-01-29T14:57:02.616Z,29.50
2023-01-29T14:59:39.062Z,31.47
2023-01-29T15:02:22.572Z,32.54
2023-01-29T15:04:57.135Z,30.25
2023-01-29T15:07:52.497Z,29.25
2023-01-29T15:10:38.745Z,29.72
2023-01-29T15:13:38.596Z,30.26
2023-01-29T15:16:16.457Z,29.50
2023-01-29T15:18:44.785Z,29.99
2023-01-29T15:21:15.432Z,31.79
2023-01-29T15:23:44.863Z,34.08
2023-01-29T15:26:19.895Z,35.32
2023-01-29T15:29:04.594Z,34.78
2023-01-29T15:31:35.586Z,33.45
2023-01-29T15:34:06.761Z,37.40
2023-01-29T15:36:36.883Z,35.88
2023-01-29T15:39:12.383Z,37.94
2023-01-29T15:41:40.468Z,38.17
2023-01-29T15:44:14.982Z,41.15
2023-01-29T15:46:48.816Z,42.95
2023-01-29T15:49:25.332Z,43.08
2023-01-29T15:51:58.664Z,44.08
2023-01-29T15:54:31.779Z,46.79
2023-01-29T15:57:01.572Z,47.13
2023-01-29T15:59:39.508Z,46.46
2023-01-29T16:02:26.858Z,46.06
2023-01-29T16:04:56.642Z,47.08
2023-01-29T16:07:24.947Z,48.50
2023-01-29T16:09:56.125Z,48.18
2023-01-29T16:12:24.773Z,48.47
2023-01-29T16:14:53.531Z,48.60
2023-01-29T16:17:35.725Z,48.95
2023-01-29T16:20:07.850Z,49.30
2023-01-29T16:22:38.064Z,49.62
2023-01-29T16:25:12.574Z,49.47
2023-01-29T16:27:43.694Z,49.66
2023-01-29T16:30:17.781Z,50.56
2023-01-29T16:32:45.709Z,50.87
2023-01-29T16:35:17.895Z,50.57
2023-01-29T16:37:51.177Z,50.31
2023-01-29T16:40:33.890Z,50.15
2023-01-29T16:43:18.081Z,51.11
2023-01-29T16:46:14.704Z,50.46
2023-01-29T16:48:42.666Z,51.85
2023-01-29T16:51:21.443Z,51.81
2023-01-29T16:54:07.236Z,53.65
2023-01-29T16:56:38.243Z,53.57
2023-01-29T16:59:07.252Z,54.17
2023-01-29T17:01:36.796Z,54.70
2023-01-29T17:04:19.135Z,54.65
2023-01-29T17:06:56.412Z,53.33
2023-01-29T17:09:30.153Z,54.01
2023-01-29T17:12:10.126Z,52.37
2023-01-29T17:14:38.842Z,53.03
2023-01-29T17:17:15.881Z,52.37
2023-01-29T17:19:43.855Z,52.39
2023-01-29T17:22:15.121Z,53.61
2023-01-29T17:24:43.091Z,53.57
2023-01-29T17:27:21.201Z,52.77
2023-01-29T17:29:49.660Z,53.48
2023-01-29T17:32:19.096Z,53.75
2023-01-29T17:34:47.392Z,53.40
2023-01-29T17:37:17.096Z,54.16
2023-01-29T17:39:48.464Z,54.08
2023-01-29T17:42:16.690Z,53.98
2023-01-29T17:44:45.527Z,53.71
2023-01-29T17:47:17.461Z,55.14
2023-01-29T17:49:45.429Z,55.57
2023-01-29T17:52:13.939Z,55.59
2023-01-29T17:54:41.965Z,55.14
2023-01-29T17:57:15.234Z,54.29
2023-01-29T17:59:44.455Z,54.74
2023-01-29T18:02:28.855Z,54.84
2023-01-29T18:04:57.805Z,54.38
2023-01-29T18:07:26.037Z,54.71
2023-01-29T18:09:54.898Z,54.41
2023-01-29T18:12:23.186Z,55.51
2023-01-29T18:14:53.342Z,55.20
2023-01-29T18:17:23.491Z,54.96
2023-01-29T18:19:51.602Z,55.44
2023-01-29T18:22:20.002Z,55.31
2023-01-29T18:24:47.948Z,55.43
2023-01-29T18:27:16.584Z,55.08
2023-01-29T18:29:44.680Z,54.92
2023-01-29T18:32:13.129Z,54.78
2023-01-29T18:34:41.531Z,54.67
2023-01-29T18:37:12.177Z,55.03
2023-01-29T18:39:42.009Z,54.88
2023-01-29T18:42:10.601Z,55.05
2023-01-29T18:44:38.803Z,55.59
2023-01-29T18:47:08.136Z,55.29
2023-01-29T18:49:39.513Z,55.86
2023-01-29T18:52:08.345Z,55.97
2023-01-29T18:54:36.262Z,56.33
2023-01-29T18:57:14.557Z,56.36
2023-01-29T18:59:52.639Z,56.60
2023-01-29T19:02:21.018Z,56.25
2023-01-29T19:04:49.137Z,56.94
2023-01-29T19:07:17.683Z,56.91
2023-01-29T19:09:47.187Z,57.16
2023-01-29T19:12:15.620Z,57.35
2023-01-29T19:14:43.714Z,57.17
2023-01-29T19:17:12.087Z,57.15
2023-01-29T19:19:40.035Z,57.07
2023-01-29T19:22:08.445Z,57.50
2023-01-29T19:24:39.420Z,57.45
2023-01-29T19:27:07.768Z,57.63
2023-01-29T19:29:35.668Z,58.20
2023-01-29T19:32:04.205Z,58.65
2023-01-29T19:34:32.295Z,58.94
2023-01-29T19:37:00.544Z,59.32
2023-01-29T19:39:33.180Z,59.12
2023-01-29T19:42:01.700Z,59.44
2023-01-29T19:44:29.725Z,59.58
2023-01-29T19:46:58.130Z,58.72
2023-01-29T19:49:27.100Z,58.89
2023-01-29T19:51:59.035Z,59.13
2023-01-29T19:54:28.117Z,59.12
2023-01-29T19:56:57.137Z,60.03
2023-01-29T19:59:25.183Z,59.54
2023-01-29T20:01:54.563Z,60.25
2023-01-29T20:04:22.549Z,60.30
2023-01-29T20:06:53.127Z,60.71
2023-01-29T20:09:21.085Z,60.51
2023-01-29T20:11:49.435Z,59.89
2023-01-29T20:14:17.384Z,59.89
2023-01-29T20:16:46.725Z,60.83
2023-01-29T20:19:15.354Z,61.18
2023-01-29T20:21:49.018Z,61.60
2023-01-29T20:24:17.025Z,61.14
2023-01-29T20:26:46.447Z,62.02
2023-01-29T20:29:15.526Z,62.57
2023-01-29T20:31:43.897Z,63.08
2023-01-29T20:34:11.957Z,63.62
2023-01-29T20:36:40.325Z,65.00
2023-01-29T20:39:08.825Z,64.03
2023-01-29T20:41:37.354Z,64.80
2023-01-29T20:44:05.415Z,64.87
2023-01-29T20:46:35.443Z,64.86
2023-01-29T20:49:03.428Z,64.37
2023-01-29T20:51:31.714Z,64.64
2023-01-29T20:53:59.705Z,64.33
2023-01-29T20:56:40.373Z,63.89
2023-01-29T20:59:11.705Z,64.54
2023-01-29T21:01:40.003Z,65.25
2023-01-29T21:04:07.977Z,64.87
2023-01-29T21:06:36.297Z,64.80
2023-01-29T21:09:04.301Z,64.31
2023-01-29T21:11:33.790Z,64.44
2023-01-29T21:14:02.148Z,64.16
2023-01-29T21:16:30.811Z,64.48
2023-01-29T21:18:59.337Z,64.07
2023-01-29T21:21:29.062Z,64.70
2023-01-29T21:23:58.665Z,64.44
2023-01-29T21:26:27.047Z,64.29
2023-01-29T21:28:54.945Z,64.22
2023-01-29T21:31:23.299Z,64.91
2023-01-29T21:33:51.477Z,64.67
2023-01-29T21:36:19.901Z,64.88
2023-01-29T21:38:47.914Z,65.15
2023-01-29T21:41:16.253Z,64.54
2023-01-29T21:43:45.126Z,64.51
2023-01-29T21:46:13.572Z,65.59
2023-01-29T21:48:42.263Z,64.89
2023-01-29T21:51:10.719Z,65.04
2023-01-29T21:53:38.625Z,66.01
2023-01-29T21:56:07.057Z,66.14
2023-01-29T21:58:34.967Z,66.91
2023-01-29T22:01:36.725Z,67.68
2023-01-29T22:03:51.410Z,67.48
2023-01-29T22:06:21.227Z,67.39
2023-01-29T22:08:50.364Z,67.87
2023-01-29T22:11:19.342Z,67.42
2023-01-29T22:13:47.355Z,67.55
2023-01-29T22:16:15.633Z,67.82
2023-01-29T22:18:43.665Z,68.14
2023-01-29T22:21:11.973Z,67.56
2023-01-29T22:23:39.972Z,68.10
2023-01-29T22:26:10.112Z,68.15
2023-01-29T22:28:38.198Z,68.11
2023-01-29T22:31:06.628Z,67.52
2023-01-29T22:33:35.035Z,67.96
2023-01-29T22:36:04.665Z,67.86
2023-01-29T22:38:32.695Z,67.69
2023-01-29T22:41:02.701Z,67.90
2023-01-29T22:43:30.628Z,67.90
2023-01-29T22:46:00.042Z,67.85
2023-01-29T22:48:28.914Z,67.04
2023-01-29T22:51:11.045Z,67.67
2023-01-29T22:53:41.660Z,68.48
2023-01-29T22:56:11.753Z,68.99
2023-01-29T22:58:41.430Z,68.85
2023-01-29T23:01:11.038Z,69.18
2023-01-29T23:03:38.921Z,68.03
2023-01-29T23:06:07.144Z,68.72
2023-01-29T23:08:35.177Z,68.68
2023-01-29T23:11:17.898Z,68.86
2023-01-29T23:13:52.140Z,69.26
2023-01-29T23:16:23.498Z,69.37
2023-01-29T23:18:54.318Z,69.52
2023-01-29T23:21:25.304Z,69.36
2023-01-29T23:23:55.543Z,69.53
2023-01-29T23:26:42.494Z,69.91
2023-01-29T23:29:10.950Z,70.09
2023-01-29T23:31:39.768Z,70.16
2023-01-29T23:34:07.805Z,70.45
2023-01-29T23:36:36.079Z,70.37
2023-01-29T23:39:04.270Z,70.50
2023-01-29T23:41:32.790Z,70.36
2023-01-29T23:44:00.777Z,70.57
2023-01-29T23:46:29.764Z,70.41
2023-01-29T23:48:57.872Z,70.57
2023-01-29T23:51:26.376Z,70.10
2023-01-29T23:53:54.521Z,70.54
2023-01-29T23:56:23.950Z,70.21
2023-01-29T23:58:56.340Z,70.82
